Time;durP1;ratioP1;P1;durP2;ratioP2;P2;SDS_P1;SDS_P2;PMS_P1;PMS_P2;Temp;Humidity;BMP_temperature;BMP_pressure;BME280_temperature;BME280_humidity;BME280_pressure;Samples;Min_cycle;Max_cycle;Signal;HPM_P1;HPM_P2
2022/02/08 00:01:31;;;;;;;17.77;10.10;;;;;;;6.86;60.21;98311.69;3415925;29;20130;-72
2022/02/08 00:03:12;;;;;;;11.02;8.43;;;;;;;6.87;60.28;98307.22;3416114;28;20066;-73
2022/02/08 00:04:53;;;;;;;14.75;10.73;;;;;;;6.87;60.38;98308.03;3429157;28;20497;-72
2022/02/08 00:06:42;;;;;;;14.65;9.75;;;;;;;6.86;60.54;98309.03;3429294;28;20042;-71
2022/02/08 00:08:23;;;;;;;13.90;9.80;;;;;;;6.91;60.33;98308.44;3429177;28;20142;-72
2022/02/08 00:10:04;;;;;;;18.23;10.20;;;;;;;6.91;60.55;98309.22;3429334;28;20503;-73
2022/02/08 00:11:45;;;;;;;18.08;10.13;;;;;;;6.90;60.40;98312.91;3428890;28;20469;-71
2022/02/08 00:13:26;;;;;;;14.18;9.43;;;;;;;6.94;60.39;98319.44;3422104;28;20525;-72
2022/02/08 00:15:07;;;;;;;15.95;9.98;;;;;;;6.92;60.49;98313.53;3429481;28;20082;-71
2022/02/08 00:16:48;;;;;;;17.98;10.68;;;;;;;6.98;60.32;98314.53;3414996;29;20074;-72
2022/02/08 00:18:29;;;;;;;13.50;9.40;;;;;;;6.98;60.32;98304.75;3426197;28;20042;-71
2022/02/08 00:20:10;;;;;;;14.88;9.77;;;;;;;6.95;60.13;98301.72;3429816;28;20066;-71
2022/02/08 00:21:54;;;;;;;15.40;10.13;;;;;;;6.97;60.08;98313.72;3429127;28;20509;-71
2022/02/08 00:23:35;;;;;;;13.73;9.55;;;;;;;6.97;60.31;98313.72;3428674;28;20046;-73
2022/02/08 00:25:16;;;;;;;15.02;9.38;;;;;;;7.00;60.50;98315.16;3427982;28;20074;-72
2022/02/08 00:26:57;;;;;;;20.98;8.80;;;;;;;7.02;60.57;98306.97;3429144;28;20049;-72
2022/02/08 00:28:38;;;;;;;14.52;9.45;;;;;;;7.06;60.52;98321.47;3429338;28;20043;-71
2022/02/08 00:30:19;;;;;;;13.85;9.48;;;;;;;7.07;60.41;98326.53;3429216;28;20054;-72
2022/02/08 00:31:59;;;;;;;17.13;10.40;;;;;;;7.09;60.50;98313.09;3414944;29;20470;-70
2022/02/08 00:33:40;;;;;;;13.98;9.35;;;;;;;7.08;60.59;98314.94;3412185;29;20083;-71
2022/02/08 00:35:21;;;;;;;15.93;10.23;;;;;;;7.10;60.62;98317.38;3399177;29;20512;-74
2022/02/08 00:37:02;;;;;;;13.48;8.63;;;;;;;7.11;60.57;98313.72;3388227;29;20044;-72
2022/02/08 00:38:42;;;;;;;14.85;10.00;;;;;;;7.10;60.67;98318.19;3385638;29;20519;-73
2022/02/08 00:40:26;;;;;;;14.68;10.80;;;;;;;7.13;60.46;98319.63;3399506;29;20048;-74
2022/02/08 00:42:09;;;;;;;13.73;9.48;;;;;;;7.14;60.41;98324.69;3402251;29;20080;-74
2022/02/08 00:44:10;;;;;;;13.88;9.68;;;;;;;7.13;60.45;98311.69;3396855;29;20039;-72
2022/02/08 00:47:38;;;;;;;14.63;9.02;;;;;;;7.15;60.55;98326.34;3414189;29;20039;-73
2022/02/08 00:49:18;;;;;;;20.98;9.75;;;;;;;7.15;60.41;98326.34;3401120;29;20040;-73
2022/02/08 00:50:59;;;;;;;13.70;8.85;;;;;;;7.16;60.56;98329.81;3423182;28;20047;-74
2022/02/08 00:52:40;;;;;;;15.45;9.73;;;;;;;7.15;60.57;98326.34;3414412;29;20055;-73
2022/02/08 00:54:21;;;;;;;13.07;8.65;;;;;;;7.18;60.30;98330.41;3417150;28;20145;-75
2022/02/08 00:56:03;;;;;;;12.85;8.68;;;;;;;7.19;60.38;98339.97;3401183;29;20117;-73
2022/02/08 00:57:45;;;;;;;15.80;8.77;;;;;;;7.19;60.63;98345.28;3398677;29;20062;-74
2022/02/08 00:59:25;;;;;;;13.18;8.95;;;;;;;7.18;60.61;98346.31;3398326;29;20550;-73
2022/02/08 01:01:07;;;;;;;15.10;10.13;;;;;;;7.17;60.36;98342.03;3398343;29;20056;-74
2022/02/08 01:02:48;;;;;;;14.88;9.52;;;;;;;7.17;60.65;98344.66;3398205;29;20061;-72
2022/02/08 01:04:29;;;;;;;12.75;8.27;;;;;;;7.17;60.62;98348.13;3411790;29;20600;-72
2022/02/08 01:06:10;;;;;;;13.95;9.18;;;;;;;7.18;60.69;98343.66;3411146;29;20070;-72
2022/02/08 01:07:51;;;;;;;11.95;8.10;;;;;;;7.18;60.61;98348.97;3425616;28;20053;-72
2022/02/08 01:09:48;;;;;;;10.85;7.75;;;;;;;7.17;60.72;98345.47;3428537;28;20053;-71
2022/02/08 01:11:28;;;;;;;18.58;8.50;;;;;;;7.20;60.72;98354.84;3428112;28;20054;-69
2022/02/08 01:13:10;;;;;;;13.52;9.27;;;;;;;7.21;60.91;98356.50;3413312;29;20035;-71
2022/02/08 01:14:53;;;;;;;11.38;7.75;;;;;;;7.22;60.72;98356.28;3387577;29;20052;-70
2022/02/08 01:16:33;;;;;;;12.13;8.15;;;;;;;7.22;60.57;98363.41;3385015;29;20110;-71
2022/02/08 01:18:14;;;;;;;13.93;9.07;;;;;;;7.20;60.69;98363.63;3384982;29;20178;-71
2022/02/08 01:20:06;;;;;;;15.38;9.27;;;;;;;7.18;60.65;98367.50;3399015;29;20050;-71
2022/02/08 01:21:46;;;;;;;11.30;7.67;;;;;;;7.17;60.57;98365.88;3400620;29;20146;-72
2022/02/08 01:23:27;;;;;;;11.65;8.00;;;;;;;7.18;60.74;98370.16;3400891;29;20065;-71
2022/02/08 01:25:14;;;;;;;11.68;8.18;;;;;;;7.19;60.79;98372.59;3410957;29;20051;-72
2022/02/08 01:27:09;;;;;;;13.32;8.07;;;;;;;7.20;60.79;98373.41;3426409;28;20066;-72
2022/02/08 01:28:58;;;;;;;13.95;8.70;;;;;;;7.24;60.89;98365.88;3413748;29;20053;-73
2022/02/08 01:30:56;;;;;;;13.73;8.45;;;;;;;7.28;60.75;98375.03;3398679;29;20048;-72
2022/02/08 01:33:13;;;;;;;12.25;8.48;;;;;;;7.30;60.95;98371.16;3427609;28;20478;-72
2022/02/08 01:37:29;;;;;;;14.13;8.80;;;;;;;7.35;60.95;98378.50;3399667;29;20043;-71
2022/02/08 01:38:40;;;;;;;12.43;8.18;;;;;;;7.41;60.74;98383.78;3394190;29;20074;-72
2022/02/08 01:44:19;;;;;;;16.00;8.85;;;;;;;7.44;60.77;98385.22;3398098;29;20063;-72
2022/02/08 01:46:11;;;;;;;13.75;8.45;;;;;;;7.49;60.65;98380.09;3427305;28;20059;-71
2022/02/08 01:52:04;;;;;;;13.32;8.38;;;;;;;7.53;60.67;98385.81;3391356;29;20318;-73
2022/02/08 01:53:45;;;;;;;13.98;8.05;;;;;;;7.51;60.67;98382.53;3387990;29;20091;-74
2022/02/08 01:55:26;;;;;;;14.07;9.20;;;;;;;7.52;60.69;98384.19;3373950;29;20076;-74
2022/02/08 01:57:07;;;;;;;13.60;8.20;;;;;;;7.50;60.74;98386.22;3383945;29;20376;-71
2022/02/08 01:58:48;;;;;;;15.43;8.82;;;;;;;7.51;60.59;98398.44;3373741;29;20052;-71
2022/02/08 02:00:36;;;;;;;16.17;8.95;;;;;;;7.51;60.58;98388.69;3384797;29;20060;-71
2022/02/08 02:02:17;;;;;;;13.52;7.88;;;;;;;7.51;60.47;98385.19;3370907;29;20136;-72
2022/02/08 02:03:58;;;;;;;14.98;9.25;;;;;;;7.49;60.62;98389.91;3381380;29;20499;-71
2022/02/08 02:05:38;;;;;;;14.85;9.25;;;;;;;7.48;60.63;98398.84;3370929;29;20044;-71
2022/02/08 02:07:21;;;;;;;15.70;9.02;;;;;;;7.45;60.54;98400.09;3381874;29;20539;-71
2022/02/08 02:09:06;;;;;;;14.73;9.52;;;;;;;7.41;60.67;98396.25;3384217;29;20074;-71
2022/02/08 02:10:47;;;;;;;18.55;8.23;;;;;;;7.43;60.61;98410.06;3384623;29;20043;-70
2022/02/08 02:12:29;;;;;;;12.73;8.37;;;;;;;7.45;60.74;98409.88;3371516;29;20049;-71
2022/02/08 02:14:09;;;;;;;14.90;8.32;;;;;;;7.44;60.89;98406.41;3360317;29;20049;-71
2022/02/08 02:15:50;;;;;;;13.38;8.40;;;;;;;7.48;60.77;98398.84;3358205;29;20049;-70
2022/02/08 02:17:34;;;;;;;14.05;9.23;;;;;;;7.53;60.97;98407.00;3358079;29;20152;-71
2022/02/08 02:19:15;;;;;;;14.02;8.02;;;;;;;7.57;60.82;98409.03;3371010;29;20040;-72
2022/02/08 02:20:57;;;;;;;13.90;8.23;;;;;;;7.58;60.54;98409.84;3377553;29;20428;-69
2022/02/08 02:22:38;;;;;;;17.63;8.88;;;;;;;7.59;60.51;98412.31;3386224;29;20143;-70
2022/02/08 02:24:19;;;;;;;13.85;7.90;;;;;;;7.60;60.68;98413.13;3383824;29;20052;-71
2022/02/08 02:25:59;;;;;;;14.55;8.85;;;;;;;7.57;60.71;98411.69;3404899;28;20429;-70
2022/02/08 02:27:41;;;;;;;16.30;9.43;;;;;;;7.59;60.51;98411.47;3412994;29;20055;-71
2022/02/08 02:29:22;;;;;;;12.85;8.63;;;;;;;7.59;60.60;98422.09;3410429;29;20047;-71
2022/02/08 02:31:05;;;;;;;11.55;8.30;;;;;;;7.59;60.69;98408.81;3406727;29;20114;-71
2022/02/08 02:32:46;;;;;;;12.23;8.45;;;;;;;7.64;60.55;98417.81;3411281;29;20114;-72
2022/02/08 02:34:27;;;;;;;13.20;8.80;;;;;;;7.67;60.45;98418.41;3399799;29;20048;-72
2022/02/08 02:36:08;;;;;;;15.60;9.32;;;;;;;7.66;60.25;98422.88;3397313;29;20496;-73
2022/02/08 02:37:50;;;;;;;13.40;9.02;;;;;;;7.68;60.14;98420.84;3397395;29;20047;-73
2022/02/08 02:39:31;;;;;;;14.05;7.82;;;;;;;7.64;60.52;98414.31;3397165;29;20071;-71
2022/02/08 02:41:16;;;;;;;11.70;7.90;;;;;;;7.66;60.38;98417.59;3404352;29;20035;-72
2022/02/08 02:43:01;;;;;;;14.57;8.90;;;;;;;7.70;60.22;98428.63;3412828;29;20467;-72
2022/02/08 02:44:43;;;;;;;12.88;8.80;;;;;;;7.67;60.29;98424.53;3410567;29;20125;-72
2022/02/08 02:46:25;;;;;;;13.70;8.05;;;;;;;7.58;60.15;98417.81;3410625;29;20541;-72
2022/02/08 02:48:07;;;;;;;12.27;8.05;;;;;;;7.60;59.93;98421.88;3410370;29;20070;-73
2022/02/08 02:49:55;;;;;;;13.05;9.15;;;;;;;7.58;60.08;98421.28;3411330;29;20578;-72
2022/02/08 02:51:39;;;;;;;11.98;8.38;;;;;;;7.61;60.10;98428.00;3399450;29;20082;-72
2022/02/08 02:53:23;;;;;;;13.32;8.35;;;;;;;7.62;60.01;98434.94;3397732;29;20103;-71
2022/02/08 02:55:04;;;;;;;15.43;7.10;;;;;;;7.62;60.08;98433.09;3400044;29;20052;-73
2022/02/08 02:56:46;;;;;;;13.13;8.02;;;;;;;7.63;60.11;98429.41;3384394;29;20900;-72
2022/02/08 02:58:31;;;;;;;9.75;6.38;;;;;;;7.62;60.00;98427.81;3395295;29;20044;-73
2022/02/08 03:00:24;;;;;;;10.80;6.75;;;;;;;7.57;59.94;98426.78;3399420;29;20051;-73
2022/02/08 03:02:29;;;;;;;12.30;7.65;;;;;;;7.60;59.92;98432.50;3414487;29;20505;-72
2022/02/08 03:19:50;;;;;;;12.65;7.65;;;;;;;7.48;59.64;98446.56;3401092;29;20047;-70
2022/02/08 03:21:31;;;;;;;15.50;9.35;;;;;;;7.46;59.87;98449.44;3414150;29;20135;-71
2022/02/08 03:23:12;;;;;;;12.02;7.50;;;;;;;7.40;59.71;98447.59;3426671;28;20042;-71
2022/02/08 03:24:53;;;;;;;12.35;7.28;;;;;;;7.43;60.06;98453.31;3415073;29;20097;-71
2022/02/08 03:26:35;;;;;;;11.07;6.75;;;;;;;7.43;59.93;98455.97;3412815;29;20043;-72
2022/02/08 03:28:18;;;;;;;9.35;5.57;;;;;;;7.43;59.99;98455.97;3412929;29;20410;-72
2022/02/08 03:29:59;;;;;;;11.77;7.60;;;;;;;7.45;59.74;98460.25;3415387;29;20043;-71
2022/02/08 03:31:40;;;;;;;11.48;7.43;;;;;;;7.42;59.79;98446.38;3399065;29;20064;-71
2022/02/08 03:33:24;;;;;;;12.82;7.88;;;;;;;7.48;59.77;98452.69;3402816;29;20050;-71
2022/02/08 03:35:06;;;;;;;9.98;6.72;;;;;;;7.50;59.77;98450.66;3388920;29;20499;-73
2022/02/08 03:36:50;;;;;;;12.07;6.80;;;;;;;7.54;59.69;98451.06;3400464;29;20046;-72
2022/02/08 03:38:38;;;;;;;15.20;7.90;;;;;;;7.53;59.75;98447.59;3414288;29;20043;-72
2022/02/08 03:42:38;;;;;;;11.23;6.68;;;;;;;7.56;59.88;98456.97;3420539;28;20494;-72
2022/02/08 03:44:30;;;;;;;12.80;7.43;;;;;;;7.59;59.69;98459.19;3413009;29;20111;-72
2022/02/08 03:46:15;;;;;;;14.65;7.55;;;;;;;7.59;59.63;98460.03;3401862;29;20156;-70
2022/02/08 03:47:56;;;;;;;18.90;8.55;;;;;;;7.55;59.70;98461.47;3414535;29;20043;-72
2022/02/08 03:49:37;;;;;;;11.88;7.70;;;;;;;7.54;59.46;98462.50;3403096;29;20552;-72
2022/02/08 03:51:23;;;;;;;14.77;7.68;;;;;;;7.54;59.69;98465.13;3398842;29;20050;-71
2022/02/08 03:53:15;;;;;;;16.63;8.18;;;;;;;7.57;59.76;98470.03;3414246;29;20051;-73
2022/02/08 03:54:56;;;;;;;14.95;8.73;;;;;;;7.56;59.74;98465.75;3426757;28;20070;-72
2022/02/08 03:56:37;;;;;;;13.77;7.95;;;;;;;7.56;59.67;98481.66;3414814;29;20102;-72
2022/02/08 03:58:19;;;;;;;15.00;8.30;;;;;;;7.53;59.57;98465.34;3412491;29;20047;-72
2022/02/08 04:00:00;;;;;;;12.05;7.40;;;;;;;7.57;59.67;98471.88;3412483;29;20055;-71
2022/02/08 04:03:24;;;;;;;15.38;7.75;;;;;;;7.56;59.69;98479.00;3398934;29;20554;-71
2022/02/08 04:05:23;;;;;;;15.75;8.02;;;;;;;7.53;59.60;98475.94;3413381;29;20212;-72
2022/02/08 04:07:15;;;;;;;12.80;6.50;;;;;;;7.55;59.82;98479.22;3402269;29;20447;-72
2022/02/08 04:08:58;;;;;;;12.25;6.97;;;;;;;7.55;59.44;98480.03;3416020;29;20051;-72
2022/02/08 04:10:41;;;;;;;13.57;7.57;;;;;;;7.54;59.67;98469.63;3419378;28;20511;-72
2022/02/08 04:12:29;;;;;;;13.65;7.97;;;;;;;7.55;59.56;98469.41;3429098;28;20101;-71
2022/02/08 04:16:23;;;;;;;15.65;8.02;;;;;;;7.56;59.74;98471.06;3428680;28;20520;-72
2022/02/08 04:41:19;;;;;;;10.07;7.43;;;;;;;7.61;59.08;98491.63;3413504;28;20129;-71
2022/02/08 04:50:17;;;;;;;10.48;6.68;;;;;;;7.55;59.32;98492.47;3428235;28;20054;-70
2022/02/08 04:52:02;;;;;;;15.75;6.22;;;;;;;7.55;59.26;98495.94;3415336;28;20039;-71
2022/02/08 04:54:00;;;;;;;10.93;5.75;;;;;;;7.59;59.18;98496.31;3415128;29;20043;-71
2022/02/08 04:55:54;;;;;;;7.95;6.10;;;;;;;7.63;59.23;98493.06;3415071;29;20047;-74
2022/02/08 04:57:45;;;;;;;8.82;5.43;;;;;;;7.66;59.10;98505.09;3415395;29;20042;-74
2022/02/08 05:01:37;;;;;;;11.35;6.47;;;;;;;7.67;59.02;98506.75;3417478;28;20629;-73
2022/02/08 05:27:53;;;;;;;11.85;5.78;;;;;;;7.60;58.82;98540.41;3428215;28;20045;-72
2022/02/08 05:35:29;;;;;;;9.40;5.45;;;;;;;7.60;58.88;98551.00;3415002;29;20154;-78
2022/02/08 05:44:44;;;;;;;7.05;5.03;;;;;;;7.55;58.68;98556.09;3414547;29;20098;-73
2022/02/08 05:48:23;;;;;;;7.53;4.72;;;;;;;7.50;58.67;98543.44;3414408;29;20047;-74
2022/02/08 05:50:09;;;;;;;6.85;5.40;;;;;;;7.63;58.73;98561.19;3414530;29;20067;-74
2022/02/08 05:53:41;;;;;;;9.10;5.03;;;;;;;7.64;58.71;98568.13;3406013;28;20098;-74
2022/02/08 05:55:22;;;;;;;10.77;6.37;;;;;;;7.64;58.35;98573.41;3401592;29;20069;-74
2022/02/08 05:57:03;;;;;;;8.60;5.28;;;;;;;7.63;58.61;98572.63;3401139;29;20385;-74
2022/02/08 05:58:46;;;;;;;8.48;4.78;;;;;;;7.60;58.34;98572.22;3387002;29;20044;-73
2022/02/08 06:00:29;;;;;;;6.75;4.72;;;;;;;7.54;58.14;98565.09;3400525;28;20043;-74
2022/02/08 06:02:24;;;;;;;7.30;4.07;;;;;;;7.52;57.81;98567.09;3397043;29;20710;-72
2022/02/08 06:04:34;;;;;;;7.82;4.15;;;;;;;7.56;57.79;98571.81;3387462;29;20056;-74
2022/02/08 06:06:15;;;;;;;6.32;3.80;;;;;;;7.64;57.67;98573.41;3408696;29;20035;-72
2022/02/08 06:07:55;;;;;;;5.63;3.72;;;;;;;7.73;57.57;98572.22;3404245;29;20129;-73
2022/02/08 06:09:36;;;;;;;6.78;3.55;;;;;;;7.76;57.14;98571.81;3399884;29;20048;-73
2022/02/08 06:11:17;;;;;;;5.63;3.30;;;;;;;7.74;56.76;98568.53;3407259;28;20043;-72
2022/02/08 06:12:58;;;;;;;6.97;2.92;;;;;;;7.77;56.92;98570.81;3423157;28;20580;-72
2022/02/08 06:14:55;;;;;;;3.50;2.53;;;;;;;7.81;56.99;98572.00;3413408;29;20498;-74
2022/02/08 06:16:36;;;;;;;3.50;2.95;;;;;;;7.87;56.92;98586.28;3387259;29;20040;-73
2022/02/08 06:18:17;;;;;;;4.82;2.88;;;;;;;7.86;56.76;98574.88;3405482;28;20039;-75
2022/02/08 06:19:58;;;;;;;4.18;2.50;;;;;;;7.89;56.55;98576.28;3400268;29;20052;-73
2022/02/08 06:21:38;;;;;;;3.90;2.45;;;;;;;7.89;56.57;98580.78;3397736;29;20475;-73
2022/02/08 06:23:19;;;;;;;3.75;2.75;;;;;;;7.88;56.57;98585.28;3411595;29;20071;-74
2022/02/08 06:24:59;;;;;;;4.72;2.60;;;;;;;7.82;56.23;98578.97;3414404;29;20054;-74
2022/02/08 06:26:40;;;;;;;5.10;2.17;;;;;;;7.82;56.21;98581.63;3387136;29;20508;-73
2022/02/08 06:28:22;;;;;;;13.68;3.55;;;;;;;7.81;56.53;98590.56;3387605;29;20044;-75
2022/02/08 06:30:04;;;;;;;;;;;;;;;7.90;56.13;98587.72;3411148;28;20050;-71
2022/02/08 06:31:46;;;;;;;7.35;2.30;;;;;;;7.81;55.85;98592.41;3373788;29;19923;-73
2022/02/08 06:33:26;;;;;;;5.32;2.72;;;;;;;7.75;55.81;98591.41;3407579;28;20070;-73
2022/02/08 06:35:14;;;;;;;5.93;2.47;;;;;;;7.71;55.77;98594.66;3420015;29;20532;-71
2022/02/08 06:37:00;;;;;;;5.50;3.25;;;;;;;7.70;55.98;98599.16;3418711;29;20043;-74
2022/02/08 06:38:41;;;;;;;5.78;3.00;;;;;;;7.70;55.85;98601.81;3420293;28;20035;-72
2022/02/08 06:40:23;;;;;;;4.10;2.83;;;;;;;7.69;55.63;98599.34;3395161;29;20052;-74
2022/02/08 06:42:04;;;;;;;4.88;2.90;;;;;;;7.69;55.85;98605.44;3402559;29;20039;-74
2022/02/08 06:43:46;;;;;;;10.07;3.45;;;;;;;7.68;55.89;98606.47;3405769;29;20224;-72
2022/02/08 06:45:26;;;;;;;6.68;3.53;;;;;;;7.68;55.61;98606.47;3406319;28;20414;-73
2022/02/08 06:47:07;;;;;;;7.05;2.85;;;;;;;7.68;55.82;98614.44;3406635;28;20040;-72
2022/02/08 06:48:48;;;;;;;5.93;2.80;;;;;;;7.67;56.00;98611.97;3405948;28;20078;-74
2022/02/08 06:50:29;;;;;;;4.10;2.78;;;;;;;7.71;55.79;98603.41;3391386;29;20040;-74
2022/02/08 06:52:10;;;;;;;9.70;3.10;;;;;;;7.77;56.07;98612.41;3402419;28;20103;-73
2022/02/08 06:53:50;;;;;;;5.25;2.67;;;;;;;7.78;55.68;98611.41;3405276;29;20458;-74
2022/02/08 06:55:31;;;;;;;8.07;2.70;;;;;;;7.78;55.70;98617.50;3416365;28;20035;-74
2022/02/08 06:57:12;;;;;;;4.32;2.90;;;;;;;7.85;55.89;98607.72;3418757;29;21043;-72
2022/02/08 06:59:02;;;;;;;4.32;2.72;;;;;;;7.91;56.05;98610.59;3417860;29;20114;-74
2022/02/08 07:00:45;;;;;;;5.22;2.75;;;;;;;7.94;55.99;98610.16;3411747;28;20044;-75
2022/02/08 07:02:27;;;;;;;5.80;2.75;;;;;;;7.94;55.84;98610.16;3378369;29;20559;-74
2022/02/08 07:04:13;;;;;;;5.30;3.65;;;;;;;7.97;55.95;98609.75;3400027;29;20043;-73
2022/02/08 07:05:54;;;;;;;8.80;3.53;;;;;;;8.01;55.76;98617.13;3420468;28;20043;-73
2022/02/08 07:07:34;;;;;;;9.05;3.13;;;;;;;8.05;55.56;98617.50;3418539;29;20058;-72
2022/02/08 07:09:18;;;;;;;5.07;3.17;;;;;;;8.04;55.58;98615.88;3419824;28;20416;-74
2022/02/08 07:11:01;;;;;;;6.30;3.28;;;;;;;8.03;55.29;98612.44;3405432;29;20047;-73
2022/02/08 07:12:44;;;;;;;8.18;3.08;;;;;;;8.05;55.25;98615.69;3405155;29;20486;-73
2022/02/08 07:14:29;;;;;;;10.25;3.75;;;;;;;8.07;55.19;98621.59;3405499;29;20048;-74
2022/02/08 07:16:11;;;;;;;5.35;2.80;;;;;;;8.09;55.24;98624.06;3405339;29;20095;-73
2022/02/08 07:17:51;;;;;;;3.67;2.60;;;;;;;8.10;55.03;98623.03;3405398;28;20051;-73
2022/02/08 07:19:32;;;;;;;5.65;2.92;;;;;;;8.08;54.73;98619.78;3415242;28;20082;-73
2022/02/08 07:21:13;;;;;;;5.95;3.15;;;;;;;8.06;54.87;98624.47;3417884;28;20102;-72
2022/02/08 07:22:54;;;;;;;4.40;3.03;;;;;;;8.06;54.67;98612.00;3417773;28;20051;-72
2022/02/08 07:24:34;;;;;;;3.88;2.45;;;;;;;8.07;54.54;98613.63;3402101;29;20054;-71
2022/02/08 07:26:15;;;;;;;3.20;2.55;;;;;;;8.12;54.80;98615.66;3402574;29;20055;-71
2022/02/08 07:27:56;;;;;;;8.00;2.90;;;;;;;8.20;54.93;98626.06;3406422;29;20078;-72
2022/02/08 07:29:38;;;;;;;5.35;2.85;;;;;;;8.22;54.93;98637.31;3417336;28;20047;-74
2022/02/08 07:31:27;;;;;;;5.03;2.95;;;;;;;8.24;54.66;98631.81;3416633;28;20051;-74
2022/02/08 07:33:07;;;;;;;7.38;2.92;;;;;;;8.22;54.59;98634.66;3411820;28;20087;-77
2022/02/08 07:34:57;;;;;;;5.00;2.65;;;;;;;8.13;54.42;98625.28;3416548;28;20462;-74
2022/02/08 07:36:47;;;;;;;7.55;3.70;;;;;;;8.18;54.54;98635.25;3425300;28;20043;-71
2022/02/08 07:38:34;;;;;;;4.63;2.67;;;;;;;8.17;54.66;98637.09;3417898;28;20049;-71
2022/02/08 07:40:28;;;;;;;6.70;3.10;;;;;;;8.19;54.69;98637.72;3418321;29;20129;-71
2022/02/08 07:42:09;;;;;;;5.50;3.03;;;;;;;8.18;54.78;98637.91;3418427;29;20050;-70
2022/02/08 07:43:51;;;;;;;8.10;2.95;;;;;;;8.15;54.84;98639.16;3417502;29;20043;-74
2022/02/08 07:45:52;;;;;;;6.28;3.45;;;;;;;8.15;54.98;98633.03;3413433;28;20047;-69
2022/02/08 07:47:32;;;;;;;6.88;2.60;;;;;;;8.12;54.90;98634.25;3402091;29;20163;-72
2022/02/08 07:49:13;;;;;;;8.57;3.40;;;;;;;8.11;54.93;98634.47;3403276;29;20066;-72
2022/02/08 07:50:55;;;;;;;4.93;3.17;;;;;;;8.11;54.99;98632.63;3419116;28;20497;-71
2022/02/08 07:52:35;;;;;;;5.83;2.60;;;;;;;8.13;55.00;98635.91;3409608;28;20051;-72
2022/02/08 07:54:16;;;;;;;4.35;3.50;;;;;;;8.10;54.57;98625.66;3427977;28;20039;-71
2022/02/08 07:55:57;;;;;;;5.10;2.67;;;;;;;8.08;54.71;98633.84;3429583;28;20054;-73
2022/02/08 07:57:38;;;;;;;8.32;2.75;;;;;;;8.07;54.63;98628.75;3429554;28;20505;-72
2022/02/08 07:59:19;;;;;;;13.05;3.50;;;;;;;8.08;54.60;98628.53;3419736;28;20076;-71
2022/02/08 08:01:06;;;;;;;6.07;2.95;;;;;;;8.11;54.70;98626.50;3403182;28;20076;-72
2022/02/08 08:02:49;;;;;;;5.88;3.30;;;;;;;8.11;54.56;98622.00;3409198;28;20593;-72
2022/02/08 08:04:30;;;;;;;7.82;3.75;;;;;;;8.09;54.58;98624.06;3428867;28;20081;-70
2022/02/08 08:06:13;;;;;;;16.65;3.67;;;;;;;8.14;54.63;98632.22;3429510;28;20073;-71
2022/02/08 08:07:53;;;;;;;12.93;3.67;;;;;;;8.17;54.72;98628.34;3393239;29;20043;-73
2022/02/08 08:09:39;;;;;;;5.57;2.95;;;;;;;8.20;54.81;98626.06;3415949;28;20129;-70
2022/02/08 08:11:22;;;;;;;3.45;2.35;;;;;;;8.29;55.97;98629.34;3429306;28;20081;-73
2022/02/08 08:13:06;;;;;;;7.55;3.60;;;;;;;8.37;55.36;98625.66;3414774;29;20114;-73
2022/02/08 08:14:46;;;;;;;6.07;3.72;;;;;;;8.43;54.88;98624.88;3427385;28;20035;-69
2022/02/08 08:16:53;;;;;;;8.13;3.95;;;;;;;8.42;54.45;98618.75;3412130;28;20509;-71
2022/02/08 08:20:14;;;;;;;6.43;3.13;;;;;;;8.55;54.22;98627.72;3412902;29;20047;-70
2022/02/08 08:21:55;;;;;;;7.10;3.75;;;;;;;8.58;54.18;98632.59;3401602;29;20043;-69
2022/02/08 08:23:36;;;;;;;6.20;3.80;;;;;;;8.61;54.10;98637.50;3412877;29;20043;-74
2022/02/08 08:25:16;;;;;;;6.53;4.18;;;;;;;8.64;53.87;98637.88;3404316;29;20414;-71
2022/02/08 08:26:57;;;;;;;9.73;4.43;;;;;;;8.64;53.55;98635.22;3403021;29;20047;-70
2022/02/08 08:28:39;;;;;;;11.73;3.80;;;;;;;8.65;53.54;98628.91;3405667;29;20043;-70
2022/02/08 08:30:20;;;;;;;4.55;3.47;;;;;;;8.68;53.55;98627.69;3415847;29;20139;-72
2022/02/08 08:32:04;;;;;;;6.00;3.28;;;;;;;8.69;53.38;98629.31;3421276;28;20093;-69
2022/02/08 08:33:45;;;;;;;6.03;3.03;;;;;;;8.71;53.14;98628.06;3415863;28;20047;-72
2022/02/08 08:35:26;;;;;;;7.22;4.57;;;;;;;8.73;53.22;98625.22;3402968;29;20040;-71
2022/02/08 08:37:07;;;;;;;6.90;4.07;;;;;;;8.74;53.06;98622.31;3409749;29;20047;-70
2022/02/08 08:38:50;;;;;;;6.53;3.90;;;;;;;8.73;52.87;98612.75;3412964;28;20053;-72
2022/02/08 08:40:49;;;;;;;7.90;4.90;;;;;;;8.72;52.94;98624.41;3403005;29;20054;-71
2022/02/08 08:43:30;;;;;;;8.35;4.00;;;;;;;8.68;52.80;98631.16;3388975;29;20040;-73
2022/02/08 08:50:18;;;;;;;9.60;3.60;;;;;;;8.65;52.53;98628.09;3416777;29;20945;-71
2022/02/08 08:51:59;;;;;;;7.53;3.70;;;;;;;8.65;52.63;98623.59;3409936;28;20148;-71
2022/02/08 08:53:40;;;;;;;5.47;3.38;;;;;;;8.68;52.49;98625.03;3428093;28;20092;-71
2022/02/08 08:55:20;;;;;;;6.60;3.38;;;;;;;8.71;52.48;98617.44;3417026;29;20065;-73
2022/02/08 08:57:04;;;;;;;6.85;2.78;;;;;;;8.76;52.30;98618.66;3409869;28;20050;-74
2022/02/08 08:58:45;;;;;;;5.88;3.30;;;;;;;8.82;52.41;98618.63;3398416;29;20514;-74
2022/02/08 09:00:26;;;;;;;6.90;3.42;;;;;;;8.81;52.00;98618.84;3394614;29;20052;-75
2022/02/08 09:02:07;;;;;;;4.97;3.00;;;;;;;8.77;51.63;98625.59;3401593;29;20126;-75
2022/02/08 09:03:49;;;;;;;9.60;3.28;;;;;;;8.71;51.65;98617.44;3401817;29;20091;-73
2022/02/08 09:05:31;;;;;;;7.93;4.00;;;;;;;8.64;51.31;98627.25;3409612;29;20469;-72
2022/02/08 09:07:15;;;;;;;7.38;3.65;;;;;;;8.55;51.39;98625.06;3407095;29;20137;-77
2022/02/08 09:08:56;;;;;;;7.15;3.40;;;;;;;8.49;51.45;98624.03;3387435;29;20519;-75
2022/02/08 09:10:54;;;;;;;5.23;3.43;;;;;;;8.41;51.05;98614.44;3411987;28;20039;-73
2022/02/08 09:13:05;;;;;;;6.82;3.28;;;;;;;8.31;51.07;98616.66;3428733;28;20309;-73
2022/02/08 09:16:48;;;;;;;7.53;3.08;;;;;;;8.18;51.06;98617.50;3404193;29;20054;-75
2022/02/08 09:24:28;;;;;;;5.85;2.28;;;;;;;7.99;50.97;98600.56;3418245;28;20097;-76
2022/02/08 09:28:21;;;;;;;;;;;;;;;8.09;51.04;98610.78;3417534;28;20047;-77
2022/02/08 09:30:13;;;;;;;5.95;2.85;;;;;;;7.98;50.77;98601.59;3414073;29;19946;-76
2022/02/08 09:32:03;;;;;;;4.10;2.30;;;;;;;7.94;50.55;98595.06;3414752;29;20062;-76
2022/02/08 09:33:43;;;;;;;5.10;2.80;;;;;;;7.94;50.74;98618.13;3414719;29;20043;-76
2022/02/08 09:35:24;;;;;;;8.48;3.42;;;;;;;7.85;50.82;98604.25;3401892;29;20063;-76
2022/02/08 09:37:05;;;;;;;5.07;2.55;;;;;;;7.84;50.98;98600.78;3411721;29;20504;-75
2022/02/08 09:38:45;;;;;;;5.20;2.70;;;;;;;7.82;50.83;98612.59;3412732;28;20047;-76
2022/02/08 09:40:27;;;;;;;5.38;2.78;;;;;;;7.77;50.93;98605.28;3414502;28;20506;-75
2022/02/08 09:42:09;;;;;;;6.38;2.55;;;;;;;7.77;51.07;98609.75;3401036;29;20593;-74
2022/02/08 09:43:52;;;;;;;4.55;2.38;;;;;;;7.76;50.77;98608.13;3412116;29;20146;-73
2022/02/08 09:45:34;;;;;;;4.07;2.47;;;;;;;7.70;50.80;98609.75;3416339;28;20049;-74
2022/02/08 09:47:19;;;;;;;;;;;;;;;7.82;51.00;98617.91;3412601;29;20039;-75
2022/02/08 09:49:01;;;;;;;6.93;2.95;;;;;;;7.71;50.80;98619.34;3410201;29;19930;-74
2022/02/08 09:50:42;;;;;;;6.18;2.85;;;;;;;7.70;50.81;98615.06;3415608;28;20113;-75
2022/02/08 09:52:23;;;;;;;2.28;2.08;;;;;;;7.68;50.83;98611.78;3387965;29;20052;-75
2022/02/08 09:54:04;;;;;;;7.90;3.00;;;;;;;7.71;50.88;98616.69;3406415;29;20156;-75
2022/02/08 09:55:45;;;;;;;6.90;2.53;;;;;;;7.70;50.92;98609.75;3414932;28;20146;-75
2022/02/08 09:57:26;;;;;;;5.47;2.42;;;;;;;7.71;51.10;98611.38;3403941;29;20550;-76
2022/02/08 09:59:06;;;;;;;8.50;3.30;;;;;;;7.74;51.12;98605.66;3412300;29;20053;-76
2022/02/08 10:00:47;;;;;;;5.10;2.83;;;;;;;7.78;51.45;98617.50;3415106;29;20126;-75
2022/02/08 10:02:28;;;;;;;4.75;3.17;;;;;;;7.77;51.32;98607.09;3383471;29;20446;-78
2022/02/08 10:04:16;;;;;;;5.85;2.53;;;;;;;7.78;51.33;98604.25;3395813;29;20078;-77
2022/02/08 10:05:56;;;;;;;3.65;2.53;;;;;;;7.67;51.23;98588.94;3400948;29;20067;-74
2022/02/08 10:07:37;;;;;;;4.85;2.55;;;;;;;7.73;51.30;98604.03;3417466;28;20042;-75
2022/02/08 10:09:18;;;;;;;4.03;2.33;;;;;;;7.71;51.47;98598.13;3425986;28;20129;-77
2022/02/08 10:10:59;;;;;;;4.50;2.30;;;;;;;7.77;51.59;98599.97;3403382;29;20396;-73
2022/02/08 10:22:29;;;;;;;5.82;3.17;;;;;;;7.82;51.54;98594.88;3406760;28;20057;-77
2022/02/08 10:24:12;;;;;;;3.60;2.65;;;;;;;7.78;51.60;98596.28;3402391;29;20040;-75
2022/02/08 10:26:05;;;;;;;5.43;2.55;;;;;;;7.84;51.96;98606.06;3407466;29;20050;-76
2022/02/08 10:28:09;;;;;;;4.05;2.58;;;;;;;7.88;51.61;98595.09;3406304;29;20051;-76